createdAt,value
2018-06-17T00:00:31.720Z,92.40
2018-06-17T00:02:59.676Z,92.60
2018-06-17T00:05:27.665Z,92.80
2018-06-17T00:07:55.683Z,93.00
2018-06-17T00:10:23.654Z,92.70
2018-06-17T00:12:51.690Z,93.20
2018-06-17T00:15:19.604Z,93.10
2018-06-17T00:17:47.430Z,93.10
2018-06-17T00:20:15.354Z,93.20
2018-06-17T00:22:43.107Z,93.30
2018-06-17T00:25:10.920Z,93.30
2018-06-17T00:27:38.688Z,93.30
2018-06-17T00:30:06.493Z,93.20
2018-06-17T00:32:34.271Z,93.60
2018-06-17T00:35:02.144Z,93.50
2018-06-17T00:37:29.932Z,93.70
2018-06-17T00:39:57.771Z,93.80
2018-06-17T00:42:25.520Z,93.70
2018-06-17T00:44:53.385Z,93.70
2018-06-17T00:47:21.372Z,93.60
2018-06-17T00:49:49.122Z,93.20
2018-06-17T00:52:16.989Z,93.20
2018-06-17T00:54:44.771Z,93.30
2018-06-17T00:57:23.845Z,93.30
2018-06-17T00:59:51.592Z,93.10
2018-06-17T01:02:19.408Z,93.30
2018-06-17T01:04:47.190Z,93.30
2018-06-17T01:07:14.949Z,93.30
2018-06-17T01:09:42.837Z,93.20
2018-06-17T01:12:10.655Z,93.20
2018-06-17T01:14:38.374Z,93.20
2018-06-17T01:17:06.143Z,93.40
2018-06-17T01:19:33.901Z,93.20
2018-06-17T01:22:03.548Z,93.20
2018-06-17T01:24:31.634Z,93.20
2018-06-17T01:26:59.640Z,93.10
2018-06-17T01:29:27.707Z,93.00
2018-06-17T01:32:03.509Z,92.80
2018-06-17T01:34:35.103Z,92.70
2018-06-17T01:37:03.159Z,92.70
2018-06-17T01:39:31.193Z,92.90
2018-06-17T01:41:59.225Z,93.10
2018-06-17T01:44:27.154Z,93.00
2018-06-17T01:46:55.277Z,93.10
2018-06-17T01:49:23.169Z,93.10
2018-06-17T01:51:51.186Z,93.10
2018-06-17T01:54:19.109Z,93.10
2018-06-17T01:56:49.068Z,93.00
2018-06-17T01:59:17.016Z,93.10
2018-06-17T02:01:45.056Z,92.90
2018-06-17T02:04:18.520Z,93.00
2018-06-17T02:06:51.894Z,93.00
2018-06-17T02:09:25.372Z,92.80
2018-06-17T02:12:00.882Z,93.00
2018-06-17T02:14:36.282Z,93.00
2018-06-17T02:17:06.249Z,93.00
2018-06-17T02:19:34.205Z,92.90
2018-06-17T02:22:06.429Z,92.60
2018-06-17T02:24:36.715Z,92.40
2018-06-17T02:27:04.711Z,92.10
2018-06-17T02:29:32.709Z,91.90
2018-06-17T02:32:00.607Z,91.90
2018-06-17T02:34:28.640Z,91.70
2018-06-17T02:36:56.650Z,91.70
2018-06-17T02:39:24.715Z,91.80
2018-06-17T02:41:59.984Z,91.90
2018-06-17T02:44:28.112Z,91.80
2018-06-17T02:47:01.603Z,91.80
2018-06-17T02:49:37.422Z,91.90
2018-06-17T02:52:11.837Z,92.00
2018-06-17T02:54:41.071Z,92.00
2018-06-17T02:57:10.440Z,92.10
2018-06-17T02:59:38.826Z,92.20
2018-06-17T03:02:06.877Z,92.30
2018-06-17T03:04:34.967Z,92.50
2018-06-17T03:07:02.984Z,92.60
2018-06-17T03:09:32.087Z,92.50
2018-06-17T03:12:00.142Z,92.70
2018-06-17T03:14:29.257Z,92.70
2018-06-17T03:16:57.213Z,92.80
2018-06-17T03:19:25.297Z,92.70
2018-06-17T03:21:53.270Z,92.90
2018-06-17T03:24:28.039Z,92.90
2018-06-17T03:27:01.567Z,92.90
2018-06-17T03:29:35.093Z,92.90
2018-06-17T03:32:08.675Z,92.90
2018-06-17T03:34:37.741Z,92.90
2018-06-17T03:37:05.767Z,92.90
2018-06-17T03:39:33.605Z,93.00
2018-06-17T03:44:35.235Z,92.70
2018-06-17T03:47:03.126Z,92.50
2018-06-17T03:49:30.894Z,92.40
2018-06-17T03:51:58.704Z,92.30
2018-06-17T03:54:26.444Z,92.20
2018-06-17T03:56:54.195Z,92.10
2018-06-17T03:59:21.983Z,92.10
2018-06-17T04:01:49.883Z,92.20
2018-06-17T04:04:18.086Z,92.20
2018-06-17T04:06:46.262Z,92.20
2018-06-17T04:09:14.209Z,92.20
2018-06-17T04:11:42.194Z,92.10
2018-06-17T04:14:10.070Z,92.10
2018-06-17T04:16:38.019Z,92.10
2018-06-17T04:19:05.973Z,92.10
2018-06-17T04:21:33.957Z,92.10
2018-06-17T04:24:01.875Z,92.10
2018-06-17T04:26:29.895Z,92.10
2018-06-17T04:28:57.801Z,92.10
2018-06-17T04:31:25.826Z,92.10
2018-06-17T04:33:53.768Z,92.00
2018-06-17T04:36:24.934Z,92.00
2018-06-17T04:38:52.875Z,92.00
2018-06-17T04:41:20.882Z,91.90
2018-06-17T04:43:48.787Z,91.90
2018-06-17T04:46:16.820Z,92.00
2018-06-17T04:48:44.791Z,91.90
2018-06-17T04:51:12.717Z,91.90
2018-06-17T04:53:40.639Z,91.90
2018-06-17T04:56:12.280Z,91.70
2018-06-17T04:58:40.300Z,91.70
2018-06-17T05:01:17.081Z,91.80
2018-06-17T05:03:44.881Z,91.50
2018-06-17T05:06:12.753Z,91.50
2018-06-17T05:08:40.780Z,91.40
2018-06-17T05:11:08.830Z,91.60
2018-06-17T05:16:04.630Z,91.10
2018-06-17T05:18:32.445Z,91.30
2018-06-17T05:21:00.212Z,91.40
2018-06-17T05:23:27.987Z,91.30
2018-06-17T05:25:55.797Z,91.40
2018-06-17T05:28:23.727Z,91.30
2018-06-17T05:30:51.540Z,91.40
2018-06-17T05:33:19.466Z,91.40
2018-06-17T05:35:47.263Z,91.40
2018-06-17T05:38:15.074Z,91.20
2018-06-17T05:40:44.022Z,91.10
2018-06-17T05:43:11.879Z,91.00
2018-06-17T05:45:39.729Z,91.10
2018-06-17T05:48:07.609Z,91.10
2018-06-17T05:50:35.254Z,91.00
2018-06-17T05:53:03.221Z,91.00
2018-06-17T05:55:31.018Z,90.50
2018-06-17T05:57:58.823Z,90.60
2018-06-17T06:00:26.635Z,90.50
2018-06-17T06:02:54.456Z,90.60
2018-06-17T06:05:22.242Z,90.50
2018-06-17T06:07:50.039Z,90.30
2018-06-17T06:10:17.851Z,90.40
2018-06-17T06:12:45.719Z,90.20
2018-06-17T06:15:13.588Z,90.20
2018-06-17T06:17:41.403Z,90.10
2018-06-17T06:20:10.085Z,90.10
2018-06-17T06:22:38.059Z,90.10
2018-06-17T06:25:05.871Z,90.10
2018-06-17T06:27:33.836Z,89.20
2018-06-17T06:30:01.720Z,88.50
2018-06-17T06:32:29.724Z,88.90
2018-06-17T06:34:57.693Z,87.80
2018-06-17T06:37:25.517Z,88.10
2018-06-17T06:39:53.313Z,88.40
2018-06-17T06:42:21.085Z,88.60
2018-06-17T06:44:48.920Z,87.70
2018-06-17T06:47:16.681Z,87.30
2018-06-17T06:49:44.537Z,87.30
2018-06-17T06:52:12.343Z,87.70
2018-06-17T06:54:40.208Z,88.10
2018-06-17T06:57:07.986Z,86.20
2018-06-17T06:59:35.768Z,86.00
2018-06-17T07:02:14.859Z,85.10
2018-06-17T07:04:54.020Z,83.70
2018-06-17T07:07:33.148Z,83.70
2018-06-17T07:10:12.297Z,84.00
2018-06-17T07:12:40.150Z,84.00
2018-06-17T07:15:07.977Z,83.40
2018-06-17T07:17:47.113Z,82.80
2018-06-17T07:20:14.912Z,82.70
2018-06-17T07:22:42.772Z,82.40
2018-06-17T07:25:18.696Z,83.40
2018-06-17T07:27:58.551Z,82.40
2018-06-17T07:30:26.312Z,83.30
2018-06-17T07:32:54.257Z,82.80
2018-06-17T07:35:22.198Z,82.80
2018-06-17T07:37:55.216Z,82.20
2018-06-17T07:40:46.176Z,82.50
2018-06-17T07:43:19.387Z,82.20
2018-06-17T07:45:47.431Z,81.20
2018-06-17T07:48:26.515Z,81.40
2018-06-17T07:51:05.648Z,80.60
2018-06-17T07:53:33.564Z,80.30
2018-06-17T07:56:01.630Z,83.10
2018-06-17T07:58:33.319Z,82.40
2018-06-17T08:01:01.204Z,82.60
2018-06-17T08:03:29.052Z,80.20
2018-06-17T08:05:56.820Z,80.60
2018-06-17T08:08:24.684Z,80.50
2018-06-17T08:10:52.591Z,79.70
2018-06-17T08:13:20.389Z,80.90
2018-06-17T08:15:48.152Z,80.40
2018-06-17T08:18:15.950Z,79.50
2018-06-17T08:20:43.828Z,78.10
2018-06-17T08:23:11.626Z,78.20
2018-06-17T08:25:39.412Z,77.60
2018-06-17T08:28:07.250Z,77.10
2018-06-17T08:30:35.118Z,75.80
2018-06-17T08:33:02.922Z,73.80
2018-06-17T08:35:31.878Z,72.50
2018-06-17T08:37:59.682Z,73.20
2018-06-17T08:40:27.612Z,73.70
2018-06-17T08:42:55.394Z,75.60
2018-06-17T08:45:23.370Z,76.30
2018-06-17T08:47:51.151Z,75.70
2018-06-17T08:50:19.011Z,76.40
2018-06-17T08:52:47.485Z,76.50
2018-06-17T08:55:16.505Z,76.50
2018-06-17T08:57:44.300Z,75.10
2018-06-17T09:00:12.180Z,74.30
2018-06-17T09:02:39.970Z,74.90
2018-06-17T09:05:07.812Z,74.90
2018-06-17T09:07:35.664Z,75.80
2018-06-17T09:10:03.585Z,76.40
2018-06-17T09:12:31.420Z,76.80
2018-06-17T09:14:59.224Z,77.10
2018-06-17T09:17:27.120Z,77.30
2018-06-17T09:19:54.965Z,78.00
2018-06-17T09:22:22.767Z,76.30
2018-06-17T09:25:00.897Z,75.70
2018-06-17T09:27:28.848Z,76.20
2018-06-17T09:30:06.384Z,76.30
2018-06-17T09:32:34.360Z,75.00
2018-06-17T09:35:02.400Z,76.00
2018-06-17T09:37:30.423Z,76.80
2018-06-17T09:39:58.473Z,76.20
2018-06-17T09:42:35.081Z,75.10
2018-06-17T09:45:03.066Z,75.10
2018-06-17T09:47:31.235Z,76.00
2018-06-17T09:49:59.243Z,76.30
2018-06-17T09:52:27.435Z,76.90
2018-06-17T09:54:55.450Z,76.60
2018-06-17T09:57:23.595Z,78.00
2018-06-17T09:59:51.755Z,77.80
2018-06-17T10:02:20.823Z,77.60
2018-06-17T10:04:48.824Z,77.80
2018-06-17T10:07:17.954Z,77.10
2018-06-17T10:09:56.843Z,77.30
2018-06-17T10:12:27.891Z,77.60
2018-06-17T10:15:03.982Z,76.00
2018-06-17T10:17:32.396Z,75.60
2018-06-17T10:20:02.457Z,76.10
2018-06-17T10:22:30.434Z,76.70
2018-06-17T10:24:58.439Z,75.60
2018-06-17T10:27:26.364Z,75.20
2018-06-17T10:29:54.434Z,74.60
2018-06-17T10:32:22.426Z,72.40
2018-06-17T10:34:51.251Z,72.00
2018-06-17T10:37:19.333Z,71.80
2018-06-17T10:39:47.282Z,69.50
2018-06-17T10:42:16.398Z,69.40
2018-06-17T10:44:53.447Z,66.60
2018-06-17T10:47:21.434Z,67.00
2018-06-17T10:49:49.515Z,68.90
2018-06-17T10:52:17.695Z,68.50
2018-06-17T10:54:48.494Z,67.50
2018-06-17T10:57:16.516Z,68.10
2018-06-17T10:59:44.688Z,68.50
2018-06-17T11:02:13.065Z,67.50
2018-06-17T11:04:41.118Z,68.20
2018-06-17T11:07:09.170Z,68.40
2018-06-17T11:13:12.415Z,67.30
2018-06-17T11:15:44.011Z,66.70
2018-06-17T11:18:39.184Z,65.10
2018-06-17T11:21:07.287Z,63.00
2018-06-17T11:23:36.283Z,63.60
2018-06-17T11:26:04.245Z,64.40
2018-06-17T11:28:32.236Z,62.70
2018-06-17T11:31:00.174Z,62.10
2018-06-17T11:33:28.163Z,62.00
2018-06-17T11:36:01.138Z,61.90
2018-06-17T11:38:29.323Z,59.70
2018-06-17T11:40:57.230Z,62.80
2018-06-17T11:43:25.148Z,61.80
2018-06-17T11:46:01.527Z,61.70
2018-06-17T11:48:42.841Z,62.80
2018-06-17T11:51:23.315Z,63.70
2018-06-17T11:53:51.236Z,63.20
2018-06-17T11:56:23.429Z,63.70
2018-06-17T11:58:51.325Z,63.60
2018-06-17T12:01:19.338Z,61.70
2018-06-17T12:03:47.286Z,60.90
2018-06-17T12:06:15.162Z,61.30
2018-06-17T12:08:50.629Z,62.50
2018-06-17T12:11:39.007Z,61.50
2018-06-17T12:14:07.085Z,58.80
2018-06-17T12:16:34.998Z,61.60
2018-06-17T12:19:03.369Z,62.00
2018-06-17T12:21:31.360Z,64.90
2018-06-17T12:23:59.281Z,65.30
2018-06-17T12:26:27.552Z,65.80
2018-06-17T12:28:55.521Z,66.70
2018-06-17T12:31:23.529Z,67.80
2018-06-17T12:33:51.664Z,67.70
2018-06-17T12:36:34.068Z,68.70
2018-06-17T12:39:28.051Z,68.90
2018-06-17T12:41:55.996Z,68.70
2018-06-17T12:48:01.627Z,67.90
2018-06-17T12:54:09.560Z,69.40
2018-06-17T12:56:37.462Z,70.10
2018-06-17T12:59:20.225Z,70.20
2018-06-17T13:01:48.217Z,69.90
2018-06-17T13:04:16.154Z,69.30
2018-06-17T13:06:44.060Z,69.70
2018-06-17T13:09:12.239Z,70.00
2018-06-17T13:11:40.253Z,69.30
2018-06-17T13:14:08.652Z,70.40
2018-06-17T13:19:02.517Z,68.60
2018-06-17T13:21:30.500Z,66.40
2018-06-17T13:24:06.447Z,66.00
2018-06-17T13:26:34.381Z,64.80
2018-06-17T13:29:02.450Z,63.30
2018-06-17T13:31:30.634Z,64.00
2018-06-17T13:33:58.717Z,65.90
2018-06-17T13:36:26.773Z,66.10
2018-06-17T13:38:54.761Z,68.60
2018-06-17T13:41:22.871Z,71.40
2018-06-17T13:43:51.173Z,74.20
2018-06-17T13:46:55.899Z,75.50
2018-06-17T13:49:23.685Z,77.50
2018-06-17T13:51:51.500Z,77.90
2018-06-17T13:54:19.284Z,76.50
2018-06-17T13:56:47.107Z,75.60
2018-06-17T13:59:14.949Z,75.90
2018-06-17T14:01:42.695Z,77.20
2018-06-17T14:04:10.534Z,78.00
2018-06-17T14:06:38.294Z,75.60
2018-06-17T14:09:07.705Z,72.10
2018-06-17T14:11:35.503Z,67.10
2018-06-17T14:14:03.498Z,66.30
2018-06-17T14:16:31.272Z,64.80
2018-06-17T14:18:59.066Z,65.90
2018-06-17T14:21:26.863Z,63.70
2018-06-17T14:23:54.759Z,61.80
2018-06-17T14:26:22.558Z,60.50
2018-06-17T14:28:50.375Z,59.90
2018-06-17T14:31:18.196Z,60.70
2018-06-17T14:33:45.949Z,62.40
2018-06-17T14:36:13.742Z,64.50
2018-06-17T14:38:41.528Z,64.10
2018-06-17T14:41:15.016Z,64.30
2018-06-17T14:43:48.510Z,67.30
2018-06-17T14:46:21.927Z,69.40
2018-06-17T14:48:55.340Z,70.90
2018-06-17T14:51:28.778Z,71.40
2018-06-17T14:53:56.531Z,71.70
2018-06-17T14:56:24.265Z,71.80
2018-06-17T14:58:52.607Z,72.90
2018-06-17T15:01:20.416Z,73.70
2018-06-17T15:03:48.217Z,73.70
2018-06-17T15:06:16.030Z,73.60
2018-06-17T15:08:44.371Z,73.70
2018-06-17T15:11:12.293Z,74.10
2018-06-17T15:13:40.041Z,73.20
2018-06-17T15:16:07.836Z,73.40
2018-06-17T15:18:35.574Z,72.60
2018-06-17T15:21:03.341Z,71.30
2018-06-17T15:23:31.189Z,70.20
2018-06-17T15:25:58.993Z,69.30
2018-06-17T15:28:26.749Z,67.40
2018-06-17T15:30:59.070Z,66.20
2018-06-17T15:33:32.290Z,65.00
2018-06-17T15:36:05.580Z,66.50
2018-06-17T15:38:38.877Z,66.50
2018-06-17T15:41:12.329Z,67.10
2018-06-17T15:43:40.126Z,65.70
2018-06-17T15:46:07.941Z,63.00
2018-06-17T15:48:35.761Z,63.30
2018-06-17T15:51:03.488Z,63.10
2018-06-17T15:53:31.264Z,63.50
2018-06-17T15:55:59.024Z,64.60
2018-06-17T15:58:26.813Z,64.90
2018-06-17T16:00:54.615Z,64.10
2018-06-17T16:03:22.430Z,64.60
2018-06-17T16:05:50.973Z,65.20
2018-06-17T16:08:18.720Z,65.70
2018-06-17T16:10:46.499Z,65.00
2018-06-17T16:13:26.989Z,66.20
2018-06-17T16:16:00.404Z,66.50
2018-06-17T16:18:33.830Z,64.70
2018-06-17T16:21:02.003Z,64.00
2018-06-17T16:23:30.761Z,64.40
2018-06-17T16:25:58.751Z,63.90
2018-06-17T16:28:26.490Z,62.70
2018-06-17T16:30:54.283Z,62.70
2018-06-17T16:33:22.069Z,63.60
2018-06-17T16:35:49.816Z,64.20
2018-06-17T16:38:17.528Z,64.30
2018-06-17T16:40:45.318Z,63.20
2018-06-17T16:43:13.105Z,63.10
2018-06-17T16:45:40.838Z,63.30
2018-06-17T16:48:08.584Z,63.50
2018-06-17T16:50:36.381Z,63.00
2018-06-17T16:53:09.770Z,63.30
2018-06-17T16:57:48.246Z,63.90
2018-06-17T17:00:20.510Z,63.60
2018-06-17T17:02:49.346Z,64.30
2018-06-17T17:05:17.214Z,64.80
2018-06-17T17:07:45.111Z,65.10
2018-06-17T17:10:13.131Z,66.20
2018-06-17T17:12:40.936Z,66.00
2018-06-17T17:15:08.744Z,66.20
2018-06-17T17:17:36.622Z,65.90
2018-06-17T17:20:04.567Z,66.50
2018-06-17T17:25:13.319Z,63.90
2018-06-17T17:27:41.150Z,63.90
2018-06-17T17:30:08.964Z,63.90
2018-06-17T17:32:42.401Z,65.00
2018-06-17T17:35:15.775Z,65.40
2018-06-17T17:37:49.224Z,66.00
2018-06-17T17:40:22.693Z,64.90
2018-06-17T17:42:50.456Z,66.20
2018-06-17T17:45:22.209Z,66.60
2018-06-17T17:47:50.097Z,67.00
2018-06-17T17:50:17.855Z,67.90
2018-06-17T17:52:45.662Z,67.90
2018-06-17T17:55:13.542Z,68.90
2018-06-17T17:57:41.371Z,69.60
2018-06-17T18:00:09.692Z,69.20
2018-06-17T18:02:37.510Z,70.00
2018-06-17T18:05:05.271Z,70.40
2018-06-17T18:07:33.076Z,70.80
2018-06-17T18:10:00.922Z,70.90
2018-06-17T18:12:28.701Z,71.00
2018-06-17T18:14:56.459Z,71.20
2018-06-17T18:17:24.208Z,71.50
2018-06-17T18:19:51.951Z,71.00
2018-06-17T18:22:19.745Z,71.00
2018-06-17T18:24:53.218Z,71.20
2018-06-17T18:27:26.526Z,71.40
2018-06-17T18:32:02.974Z,71.40
2018-06-17T18:34:36.311Z,71.50
2018-06-17T18:37:04.080Z,72.10
2018-06-17T18:39:32.011Z,72.50
2018-06-17T18:41:59.773Z,72.30
2018-06-17T18:44:27.537Z,72.70
2018-06-17T18:46:55.347Z,72.70
2018-06-17T18:49:23.213Z,72.90
2018-06-17T18:51:51.014Z,73.20
2018-06-17T18:54:18.784Z,73.20
2018-06-17T18:56:46.570Z,73.60
2018-06-17T18:59:14.391Z,73.60
2018-06-17T19:01:42.161Z,73.50
2018-06-17T19:04:09.981Z,73.10
2018-06-17T19:06:37.782Z,73.10
2018-06-17T19:09:13.001Z,73.20
2018-06-17T19:11:46.768Z,72.90
2018-06-17T19:14:20.174Z,73.20
2018-06-17T19:16:53.558Z,72.90
2018-06-17T19:19:21.771Z,73.60
2018-06-17T19:21:49.591Z,73.90
2018-06-17T19:24:17.388Z,74.00
2018-06-17T19:26:45.190Z,73.90
2018-06-17T19:29:13.007Z,74.00
2018-06-17T19:31:40.803Z,74.50
2018-06-17T19:34:08.638Z,74.50
2018-06-17T19:36:36.609Z,74.70
2018-06-17T19:39:06.856Z,75.00
2018-06-17T19:41:34.653Z,74.70
2018-06-17T19:44:02.515Z,74.80
2018-06-17T19:46:30.337Z,74.80
2018-06-17T19:48:58.158Z,75.10
2018-06-17T19:51:31.584Z,75.60
2018-06-17T19:54:04.965Z,75.60
2018-06-17T19:56:38.324Z,75.90
2018-06-17T19:59:11.710Z,75.50
2018-06-17T20:01:39.504Z,75.60
2018-06-17T20:04:07.260Z,76.00
2018-06-17T20:06:35.049Z,76.10
2018-06-17T20:09:03.648Z,76.60
2018-06-17T20:11:31.390Z,76.80
2018-06-17T20:13:59.208Z,76.80
2018-06-17T20:16:26.889Z,77.00
2018-06-17T20:18:54.615Z,76.80
2018-06-17T20:21:22.418Z,77.30
2018-06-17T20:23:50.137Z,77.00
2018-06-17T20:26:17.865Z,77.60
2018-06-17T20:28:45.604Z,78.50
2018-06-17T20:31:13.352Z,79.70
2018-06-17T20:33:46.627Z,80.50
2018-06-17T20:36:20.010Z,81.30
2018-06-17T20:38:53.418Z,81.90
2018-06-17T20:41:26.740Z,82.90
2018-06-17T20:43:54.884Z,83.10
2018-06-17T20:46:22.652Z,83.30
2018-06-17T20:48:50.511Z,83.80
2018-06-17T20:51:19.576Z,83.20
2018-06-17T20:53:47.685Z,83.20
2018-06-17T20:56:15.507Z,83.40
2018-06-17T20:58:44.042Z,83.40
2018-06-17T21:01:19.570Z,83.70
2018-06-17T21:03:47.346Z,84.00
2018-06-17T21:06:15.081Z,84.00
2018-06-17T21:08:42.865Z,84.20
2018-06-17T21:11:10.591Z,84.40
2018-06-17T21:13:38.325Z,84.40
2018-06-17T21:16:06.053Z,84.50
2018-06-17T21:18:39.384Z,84.60
2018-06-17T21:21:12.752Z,84.80
2018-06-17T21:23:46.014Z,84.80
2018-06-17T21:26:19.398Z,84.80
2018-06-17T21:28:47.144Z,84.80
2018-06-17T21:31:14.877Z,84.50
2018-06-17T21:33:42.647Z,84.70
2018-06-17T21:36:10.368Z,84.40
2018-06-17T21:38:38.139Z,84.30
2018-06-17T21:41:06.069Z,84.20
2018-06-17T21:43:33.849Z,84.30
2018-06-17T21:46:01.644Z,84.20
2018-06-17T21:48:29.365Z,84.20
2018-06-17T21:50:57.116Z,84.20
2018-06-17T21:53:24.848Z,84.30
2018-06-17T21:55:52.643Z,84.20
2018-06-17T21:58:26.101Z,84.50
2018-06-17T22:00:53.913Z,84.70
2018-06-17T22:03:21.646Z,84.70
2018-06-17T22:05:49.467Z,84.90
2018-06-17T22:08:22.721Z,84.80
2018-06-17T22:10:56.063Z,84.70
2018-06-17T22:13:23.826Z,84.90
2018-06-17T22:15:57.238Z,84.70
2018-06-17T22:18:24.996Z,85.10
2018-06-17T22:20:52.696Z,86.20
2018-06-17T22:23:20.448Z,86.60
2018-06-17T22:25:48.205Z,87.10
2018-06-17T22:28:15.951Z,87.20
2018-06-17T22:30:43.824Z,87.40
2018-06-17T22:33:11.653Z,87.80
2018-06-17T22:35:39.454Z,87.90
2018-06-17T22:38:07.199Z,87.80
2018-06-17T22:40:34.981Z,87.80
2018-06-17T22:43:02.743Z,87.80
2018-06-17T22:45:30.635Z,87.50
2018-06-17T22:47:59.155Z,87.40
2018-06-17T22:50:27.121Z,87.10
2018-06-17T22:53:06.035Z,87.10
2018-06-17T22:55:33.779Z,87.20
2018-06-17T22:58:07.189Z,87.30
2018-06-17T23:00:40.435Z,87.30
2018-06-17T23:03:13.824Z,87.50
2018-06-17T23:05:47.236Z,87.80
2018-06-17T23:08:20.740Z,87.80
2018-06-17T23:10:48.475Z,88.70
2018-06-17T23:13:16.349Z,88.80
2018-06-17T23:15:44.108Z,88.70
2018-06-17T23:18:11.899Z,88.70
2018-06-17T23:20:39.615Z,88.80
2018-06-17T23:23:07.377Z,89.10
2018-06-17T23:25:35.116Z,89.20
2018-06-17T23:28:02.886Z,89.20
2018-06-17T23:30:30.692Z,90.00
2018-06-17T23:32:58.453Z,89.20
2018-06-17T23:35:26.164Z,89.10
2018-06-17T23:37:53.902Z,89.10
2018-06-17T23:40:21.628Z,89.20
2018-06-17T23:42:49.301Z,89.20
2018-06-17T23:45:17.026Z,89.20
2018-06-17T23:47:50.429Z,89.20
2018-06-17T23:50:23.674Z,89.20
2018-06-17T23:52:56.958Z,89.20
2018-06-17T23:55:30.285Z,89.30
2018-06-17T23:57:58.047Z,90.00
